createdAt,value
2018-06-24T00:01:28.793Z,15.60
2018-06-24T00:03:57.005Z,15.70
2018-06-24T00:06:25.188Z,15.70
2018-06-24T00:08:53.398Z,15.60
2018-06-24T00:11:21.610Z,15.60
2018-06-24T00:13:49.900Z,15.60
2018-06-24T00:16:18.088Z,15.60
2018-06-24T00:18:46.288Z,15.60
2018-06-24T00:21:14.484Z,15.60
2018-06-24T00:23:42.744Z,15.60
2018-06-24T00:26:10.964Z,15.60
2018-06-24T00:28:39.160Z,15.60
2018-06-24T00:31:07.374Z,15.50
2018-06-24T00:33:35.568Z,15.50
2018-06-24T00:36:03.805Z,15.50
2018-06-24T00:38:32.049Z,15.50
2018-06-24T00:41:00.270Z,15.40
2018-06-24T00:43:28.469Z,15.40
2018-06-24T00:45:56.660Z,15.40
2018-06-24T00:48:24.932Z,15.30
2018-06-24T00:50:53.188Z,15.30
2018-06-24T00:53:21.400Z,15.30
2018-06-24T00:55:49.624Z,15.30
2018-06-24T00:58:17.817Z,15.20
2018-06-24T01:00:46.089Z,15.20
2018-06-24T01:03:14.296Z,15.20
2018-06-24T01:05:42.496Z,15.20
2018-06-24T01:08:10.797Z,15.10
2018-06-24T01:10:39.028Z,15.10
2018-06-24T01:13:07.254Z,15.10
2018-06-24T01:15:35.465Z,15.10
2018-06-24T01:18:03.805Z,15.10
2018-06-24T01:20:32.024Z,15.10
2018-06-24T01:23:00.277Z,15.10
2018-06-24T01:25:28.486Z,15.00
2018-06-24T01:27:56.752Z,15.00
2018-06-24T01:30:25.000Z,15.00
2018-06-24T01:32:53.202Z,15.00
2018-06-24T01:35:21.468Z,15.00
2018-06-24T01:37:49.851Z,15.00
2018-06-24T01:40:18.032Z,15.00
2018-06-24T01:42:46.212Z,14.90
2018-06-24T01:45:14.429Z,14.90
2018-06-24T01:47:42.640Z,14.90
2018-06-24T01:50:10.833Z,14.90
2018-06-24T01:52:39.030Z,14.90
2018-06-24T01:55:07.231Z,14.90
2018-06-24T01:57:35.449Z,14.90
2018-06-24T02:00:03.708Z,14.90
2018-06-24T02:02:32.520Z,14.80
2018-06-24T02:05:00.720Z,14.80
2018-06-24T02:07:28.916Z,14.80
2018-06-24T02:09:57.105Z,14.80
2018-06-24T02:12:25.316Z,14.80
2018-06-24T02:17:21.471Z,14.80
2018-06-24T02:19:49.684Z,14.80
2018-06-24T02:22:17.948Z,14.70
2018-06-24T02:24:46.209Z,14.70
2018-06-24T02:27:14.432Z,14.70
2018-06-24T02:29:42.637Z,14.70
2018-06-24T02:32:10.829Z,14.70
2018-06-24T02:34:39.034Z,14.70
2018-06-24T02:37:07.237Z,14.70
2018-06-24T02:39:35.541Z,14.70
2018-06-24T02:42:03.844Z,14.70
2018-06-24T02:44:32.053Z,14.70
2018-06-24T02:47:00.264Z,14.70
2018-06-24T02:49:28.457Z,14.70
2018-06-24T02:51:56.675Z,14.70
2018-06-24T02:54:24.862Z,14.70
2018-06-24T02:56:53.048Z,14.70
2018-06-24T02:59:21.268Z,14.60
2018-06-24T03:01:49.478Z,14.60
2018-06-24T03:04:17.672Z,14.70
2018-06-24T03:06:45.868Z,14.70
2018-06-24T03:09:14.116Z,14.70
2018-06-24T03:11:42.422Z,14.70
2018-06-24T03:14:10.675Z,14.70
2018-06-24T03:16:38.880Z,14.70
2018-06-24T03:19:07.188Z,14.70
2018-06-24T03:21:35.412Z,14.80
2018-06-24T03:24:03.617Z,14.80
2018-06-24T03:26:31.816Z,14.70
2018-06-24T03:29:00.023Z,14.70
2018-06-24T03:31:28.201Z,14.70
2018-06-24T03:33:56.436Z,14.70
2018-06-24T03:36:24.636Z,14.70
2018-06-24T03:38:52.852Z,14.70
2018-06-24T03:41:21.058Z,14.70
2018-06-24T03:43:49.279Z,14.70
2018-06-24T03:46:17.496Z,14.70
2018-06-24T03:48:45.996Z,14.70
2018-06-24T03:51:14.210Z,14.70
2018-06-24T03:53:42.544Z,14.70
2018-06-24T03:56:11.289Z,14.70
2018-06-24T04:01:07.064Z,14.60
2018-06-24T04:03:35.252Z,14.60
2018-06-24T04:06:03.482Z,14.60
2018-06-24T04:08:31.698Z,14.60
2018-06-24T04:10:59.923Z,14.60
2018-06-24T04:13:28.112Z,14.70
2018-06-24T04:16:06.023Z,14.70
2018-06-24T04:18:42.021Z,14.70
2018-06-24T04:21:12.257Z,14.70
2018-06-24T04:23:41.173Z,14.70
2018-06-24T04:26:10.157Z,14.80
2018-06-24T04:28:38.632Z,14.80
2018-06-24T04:31:07.155Z,14.80
2018-06-24T04:33:35.600Z,14.80
2018-06-24T04:36:04.424Z,14.90
2018-06-24T04:38:32.680Z,14.90
2018-06-24T04:41:01.209Z,14.90
2018-06-24T04:43:29.628Z,14.90
2018-06-24T04:45:57.852Z,14.90
2018-06-24T04:48:26.108Z,15.00
2018-06-24T04:50:54.332Z,15.00
2018-06-24T04:53:22.720Z,15.00
2018-06-24T04:55:51.096Z,15.10
2018-06-24T04:58:19.333Z,15.10
2018-06-24T05:00:47.532Z,15.20
2018-06-24T05:03:15.760Z,15.20
2018-06-24T05:05:44.000Z,15.20
2018-06-24T05:08:12.202Z,15.20
2018-06-24T05:10:40.439Z,15.20
2018-06-24T05:13:08.721Z,15.20
2018-06-24T05:15:36.936Z,15.20
2018-06-24T05:18:05.678Z,15.30
2018-06-24T05:20:33.888Z,15.30
2018-06-24T05:23:02.105Z,15.30
2018-06-24T05:25:30.327Z,15.30
2018-06-24T05:27:58.549Z,15.40
2018-06-24T05:30:26.744Z,15.40
2018-06-24T05:32:54.950Z,15.50
2018-06-24T05:35:23.217Z,15.50
2018-06-24T05:37:51.445Z,15.50
2018-06-24T05:40:19.600Z,15.50
2018-06-24T05:42:47.821Z,15.50
2018-06-24T05:45:16.009Z,15.60
2018-06-24T05:47:44.244Z,15.60
2018-06-24T05:50:12.433Z,15.60
2018-06-24T05:52:40.633Z,15.70
2018-06-24T05:55:08.827Z,15.70
2018-06-24T05:57:37.025Z,15.70
2018-06-24T06:00:06.472Z,15.70
2018-06-24T06:02:34.693Z,15.80
2018-06-24T06:05:02.919Z,15.80
2018-06-24T06:07:31.134Z,15.80
2018-06-24T06:09:59.345Z,15.90
2018-06-24T06:12:27.580Z,15.90
2018-06-24T06:14:56.456Z,15.90
2018-06-24T06:17:24.640Z,15.90
2018-06-24T06:19:52.830Z,16.00
2018-06-24T06:22:21.045Z,16.00
2018-06-24T06:24:49.347Z,16.00
2018-06-24T06:27:17.532Z,16.00
2018-06-24T06:29:45.785Z,16.00
2018-06-24T06:32:13.992Z,16.00
2018-06-24T06:34:42.191Z,16.00
2018-06-24T06:37:10.457Z,16.00
2018-06-24T06:39:38.668Z,16.10
2018-06-24T06:42:07.033Z,16.10
2018-06-24T06:44:35.240Z,16.20
2018-06-24T06:47:03.464Z,16.20
2018-06-24T06:49:31.703Z,16.30
2018-06-24T06:51:59.908Z,16.30
2018-06-24T06:54:28.106Z,16.30
2018-06-24T06:56:56.439Z,16.40
2018-06-24T06:59:24.621Z,16.40
2018-06-24T07:01:52.808Z,16.50
2018-06-24T07:04:21.041Z,16.50
2018-06-24T07:06:49.260Z,16.60
2018-06-24T07:09:17.460Z,16.60
2018-06-24T07:11:45.712Z,16.70
2018-06-24T07:14:13.900Z,16.70
2018-06-24T07:16:42.088Z,16.70
2018-06-24T07:19:10.280Z,16.80
2018-06-24T07:21:38.500Z,16.80
2018-06-24T07:24:06.740Z,16.80
2018-06-24T07:26:34.956Z,16.90
2018-06-24T07:29:03.149Z,16.90
2018-06-24T07:31:31.377Z,16.90
2018-06-24T07:33:59.677Z,17.00
2018-06-24T07:36:27.891Z,17.10
2018-06-24T07:38:56.092Z,17.10
2018-06-24T07:41:24.800Z,17.20
2018-06-24T07:43:52.992Z,17.20
2018-06-24T07:46:21.241Z,17.20
2018-06-24T07:48:49.463Z,17.30
2018-06-24T07:51:17.888Z,17.40
2018-06-24T07:53:46.068Z,17.40
2018-06-24T07:56:14.265Z,17.40
2018-06-24T07:58:42.597Z,17.50
2018-06-24T08:01:10.973Z,17.50
2018-06-24T08:03:39.174Z,17.60
2018-06-24T08:06:07.373Z,17.70
2018-06-24T08:08:35.621Z,17.60
2018-06-24T08:11:03.860Z,17.70
2018-06-24T08:16:00.107Z,17.70
2018-06-24T08:18:28.316Z,17.70
2018-06-24T08:20:56.480Z,17.80
2018-06-24T08:23:24.700Z,17.90
2018-06-24T08:25:52.905Z,17.90
2018-06-24T08:28:21.093Z,18.00
2018-06-24T08:30:49.276Z,18.10
2018-06-24T08:33:17.533Z,18.20
2018-06-24T08:35:45.826Z,18.20
2018-06-24T08:38:14.030Z,18.30
2018-06-24T08:40:42.208Z,18.30
2018-06-24T08:43:10.428Z,18.40
2018-06-24T08:45:38.608Z,18.50
2018-06-24T08:48:06.912Z,18.50
2018-06-24T08:50:35.121Z,18.50
2018-06-24T08:53:03.448Z,18.60
2018-06-24T08:55:31.677Z,18.70
2018-06-24T08:57:59.920Z,18.70
2018-06-24T09:00:28.713Z,18.80
2018-06-24T09:02:56.860Z,18.80
2018-06-24T09:05:25.089Z,18.90
2018-06-24T09:07:53.320Z,18.90
2018-06-24T09:10:21.513Z,19.00
2018-06-24T09:12:50.064Z,19.00
2018-06-24T09:15:18.257Z,19.10
2018-06-24T09:17:46.495Z,19.00
2018-06-24T09:20:14.694Z,19.00
2018-06-24T09:22:42.876Z,19.10
2018-06-24T09:25:11.064Z,19.10
2018-06-24T09:27:39.350Z,19.10
2018-06-24T09:30:07.544Z,19.10
2018-06-24T09:32:35.736Z,19.10
2018-06-24T09:35:03.986Z,19.10
2018-06-24T09:37:32.300Z,19.10
2018-06-24T09:40:00.512Z,19.20
2018-06-24T09:42:29.510Z,19.20
2018-06-24T09:44:57.768Z,19.20
2018-06-24T09:47:26.015Z,19.20
2018-06-24T09:52:22.172Z,19.30
2018-06-24T09:54:50.389Z,19.30
2018-06-24T09:57:18.564Z,19.30
2018-06-24T09:59:46.749Z,19.30
2018-06-24T10:02:14.937Z,19.30
2018-06-24T10:04:43.173Z,19.30
2018-06-24T10:07:11.352Z,19.40
2018-06-24T10:09:39.560Z,19.40
2018-06-24T10:12:08.028Z,19.40
2018-06-24T10:14:36.223Z,19.40
2018-06-24T10:17:04.460Z,19.50
2018-06-24T10:19:32.649Z,19.50
2018-06-24T10:22:00.840Z,19.50
2018-06-24T10:24:29.024Z,19.50
2018-06-24T10:26:57.236Z,19.40
2018-06-24T10:29:25.496Z,19.40
2018-06-24T10:31:53.641Z,19.40
2018-06-24T10:34:21.824Z,19.40
2018-06-24T10:39:17.980Z,19.40
2018-06-24T10:41:46.237Z,19.50
2018-06-24T10:44:14.406Z,19.50
2018-06-24T10:46:42.589Z,19.50
2018-06-24T10:49:10.780Z,19.50
2018-06-24T10:51:38.976Z,19.60
2018-06-24T10:54:07.165Z,19.60
2018-06-24T10:56:35.388Z,19.70
2018-06-24T11:01:31.568Z,19.70
2018-06-24T11:04:00.398Z,19.80
2018-06-24T11:06:28.587Z,19.70
2018-06-24T11:08:56.780Z,19.80
2018-06-24T11:11:24.973Z,19.80
2018-06-24T11:13:53.156Z,19.70
2018-06-24T11:16:21.378Z,19.80
2018-06-24T11:18:49.568Z,19.80
2018-06-24T11:21:17.752Z,19.80
2018-06-24T11:23:45.997Z,19.80
2018-06-24T11:26:14.167Z,19.80
2018-06-24T11:28:42.358Z,19.90
2018-06-24T11:31:10.545Z,19.90
2018-06-24T11:33:38.741Z,19.90
2018-06-24T11:36:06.918Z,20.00
2018-06-24T11:38:35.131Z,20.00
2018-06-24T11:41:03.354Z,20.00
2018-06-24T11:43:31.567Z,20.10
2018-06-24T11:45:59.782Z,20.10
2018-06-24T11:48:28.042Z,20.10
2018-06-24T11:50:56.251Z,20.10
2018-06-24T11:53:24.449Z,20.10
2018-06-24T11:55:52.632Z,20.10
2018-06-24T11:58:20.840Z,20.10
2018-06-24T12:00:49.016Z,20.10
2018-06-24T12:03:17.204Z,20.10
2018-06-24T12:05:45.413Z,20.20
2018-06-24T12:08:13.801Z,20.20
2018-06-24T12:10:42.059Z,20.20
2018-06-24T12:13:11.020Z,20.30
2018-06-24T12:15:39.218Z,20.30
2018-06-24T12:18:07.946Z,20.30
2018-06-24T12:20:36.121Z,20.40
2018-06-24T12:23:04.356Z,20.40
2018-06-24T12:25:32.559Z,20.40
2018-06-24T12:28:00.732Z,20.40
2018-06-24T12:30:28.936Z,20.40
2018-06-24T12:32:57.116Z,20.50
2018-06-24T12:35:25.384Z,20.50
2018-06-24T12:37:53.576Z,20.60
2018-06-24T12:40:27.313Z,20.60
2018-06-24T12:42:55.522Z,20.60
2018-06-24T12:45:23.712Z,20.70
2018-06-24T12:47:51.908Z,20.80
2018-06-24T12:50:20.128Z,20.80
2018-06-24T12:52:48.393Z,20.70
2018-06-24T12:55:16.729Z,20.70
2018-06-24T12:57:44.900Z,20.70
2018-06-24T13:00:13.462Z,20.70
2018-06-24T13:05:09.397Z,20.70
2018-06-24T13:07:37.844Z,20.70
2018-06-24T13:10:06.606Z,20.70
2018-06-24T13:12:34.785Z,20.70
2018-06-24T13:15:03.033Z,20.70
2018-06-24T13:17:31.228Z,20.60
2018-06-24T13:19:59.417Z,20.60
2018-06-24T13:22:27.796Z,20.60
2018-06-24T13:24:55.965Z,20.60
2018-06-24T13:27:24.217Z,20.50
2018-06-24T13:29:52.383Z,20.50
2018-06-24T13:32:20.572Z,20.60
2018-06-24T13:34:48.744Z,20.60
2018-06-24T13:37:16.968Z,20.60
2018-06-24T13:39:45.148Z,20.60
2018-06-24T13:42:13.408Z,20.60
2018-06-24T13:44:41.525Z,20.60
2018-06-24T13:47:09.717Z,20.60
2018-06-24T13:49:38.048Z,20.60
2018-06-24T13:52:06.249Z,20.60
2018-06-24T13:54:34.420Z,20.60
2018-06-24T13:57:02.653Z,20.60
2018-06-24T13:59:30.824Z,20.50
2018-06-24T14:01:59.024Z,20.50
2018-06-24T14:04:27.204Z,20.60
2018-06-24T14:06:55.396Z,20.60
2018-06-24T14:09:23.580Z,20.60
2018-06-24T14:11:51.821Z,20.60
2018-06-24T14:14:20.024Z,20.60
2018-06-24T14:16:48.217Z,20.70
2018-06-24T14:19:16.402Z,20.70
2018-06-24T14:21:44.580Z,20.70
2018-06-24T14:24:12.824Z,20.80
2018-06-24T14:26:41.018Z,20.80
2018-06-24T14:29:09.213Z,20.80
2018-06-24T14:31:37.398Z,20.80
2018-06-24T14:34:05.793Z,20.80
2018-06-24T14:36:34.023Z,20.80
2018-06-24T14:39:02.172Z,20.80
2018-06-24T14:41:30.348Z,20.90
2018-06-24T14:43:58.564Z,20.90
2018-06-24T14:46:26.740Z,21.00
2018-06-24T14:48:54.936Z,21.00
2018-06-24T14:51:23.120Z,21.10
2018-06-24T14:53:51.303Z,21.10
2018-06-24T14:56:19.489Z,21.20
2018-06-24T14:58:47.672Z,21.10
2018-06-24T15:01:15.864Z,21.10
2018-06-24T15:03:44.240Z,21.20
2018-06-24T15:06:12.476Z,21.20
2018-06-24T15:08:40.677Z,21.20
2018-06-24T15:11:08.860Z,21.20
2018-06-24T15:13:37.054Z,21.10
2018-06-24T15:16:05.257Z,21.10
2018-06-24T15:18:33.457Z,21.00
2018-06-24T15:21:01.636Z,20.90
2018-06-24T15:23:29.812Z,20.80
2018-06-24T15:25:57.998Z,20.80
2018-06-24T15:28:26.180Z,20.70
2018-06-24T15:30:54.380Z,20.60
2018-06-24T15:33:22.560Z,20.50
2018-06-24T15:35:50.741Z,20.50
2018-06-24T15:38:18.952Z,20.40
2018-06-24T15:40:47.148Z,20.30
2018-06-24T15:43:15.352Z,20.30
2018-06-24T15:45:43.737Z,20.30
2018-06-24T15:48:11.900Z,20.20
2018-06-24T15:50:40.132Z,20.20
2018-06-24T15:53:08.313Z,20.20
2018-06-24T15:55:36.530Z,20.10
2018-06-24T15:58:04.776Z,20.10
2018-06-24T16:00:32.989Z,20.10
2018-06-24T16:03:01.223Z,20.10
2018-06-24T16:05:29.424Z,20.00
2018-06-24T16:07:57.605Z,20.00
2018-06-24T16:10:25.849Z,20.00
2018-06-24T16:12:54.028Z,19.90
2018-06-24T16:15:22.244Z,19.90
2018-06-24T16:17:50.432Z,19.90
2018-06-24T16:20:18.625Z,19.90
2018-06-24T16:22:46.864Z,19.90
2018-06-24T16:25:15.044Z,19.90
2018-06-24T16:27:43.236Z,19.80
2018-06-24T16:30:11.462Z,19.80
2018-06-24T16:32:39.648Z,19.80
2018-06-24T16:35:07.828Z,19.90
2018-06-24T16:37:36.289Z,19.90
2018-06-24T16:40:04.864Z,19.90
2018-06-24T16:42:33.204Z,19.90
2018-06-24T16:45:01.944Z,19.90
2018-06-24T16:47:30.124Z,19.80
2018-06-24T16:49:58.316Z,19.80
2018-06-24T16:52:26.733Z,19.80
2018-06-24T16:54:55.121Z,19.70
2018-06-24T16:57:23.324Z,19.80
2018-06-24T16:59:51.498Z,19.80
2018-06-24T17:02:19.684Z,19.80
2018-06-24T17:04:47.872Z,19.80
2018-06-24T17:07:16.073Z,19.80
2018-06-24T17:09:44.820Z,19.80
2018-06-24T17:12:13.037Z,19.80
2018-06-24T17:14:41.222Z,19.80
2018-06-24T17:17:09.480Z,19.80
2018-06-24T17:19:37.632Z,19.80
2018-06-24T17:22:05.808Z,19.80
2018-06-24T17:24:34.002Z,19.80
2018-06-24T17:27:02.227Z,19.80
2018-06-24T17:29:30.822Z,19.70
2018-06-24T17:31:58.612Z,19.70
2018-06-24T17:34:26.812Z,19.80
2018-06-24T17:36:55.078Z,19.80
2018-06-24T17:39:23.288Z,19.80
2018-06-24T17:41:51.460Z,19.70
2018-06-24T17:44:19.660Z,19.70
2018-06-24T17:46:47.836Z,19.70
2018-06-24T17:49:16.029Z,19.70
2018-06-24T17:51:44.212Z,19.70
2018-06-24T17:56:40.537Z,19.70
2018-06-24T17:59:08.735Z,19.60
2018-06-24T18:01:36.908Z,19.60
2018-06-24T18:04:05.240Z,19.60
2018-06-24T18:06:33.485Z,19.60
2018-06-24T18:09:01.684Z,19.60
2018-06-24T18:11:29.889Z,19.60
2018-06-24T18:13:58.109Z,19.60
2018-06-24T18:16:26.300Z,19.50
2018-06-24T18:18:54.497Z,19.50
2018-06-24T18:21:22.684Z,19.50
2018-06-24T18:23:50.909Z,19.50
2018-06-24T18:26:19.118Z,19.50
2018-06-24T18:28:47.300Z,19.40
2018-06-24T18:31:15.536Z,19.40
2018-06-24T18:33:43.712Z,19.40
2018-06-24T18:36:11.944Z,19.40
2018-06-24T18:38:40.121Z,19.40
2018-06-24T18:41:08.462Z,19.40
2018-06-24T18:43:36.640Z,19.40
2018-06-24T18:46:05.050Z,19.40
2018-06-24T18:48:33.334Z,19.40
2018-06-24T18:51:01.545Z,19.40
2018-06-24T18:53:29.740Z,19.40
2018-06-24T18:55:57.960Z,19.30
2018-06-24T18:58:26.374Z,19.30
2018-06-24T19:00:54.568Z,19.30
2018-06-24T19:03:22.807Z,19.30
2018-06-24T19:05:51.025Z,19.20
2018-06-24T19:08:19.196Z,19.20
2018-06-24T19:10:47.408Z,19.20
2018-06-24T19:13:15.576Z,19.20
2018-06-24T19:15:43.777Z,19.20
2018-06-24T19:18:11.949Z,19.20
2018-06-24T19:20:40.157Z,19.20
2018-06-24T19:23:08.344Z,19.10
2018-06-24T19:25:36.532Z,19.10
2018-06-24T19:28:04.924Z,19.10
2018-06-24T19:30:33.133Z,19.10
2018-06-24T19:33:01.336Z,19.10
2018-06-24T19:35:29.520Z,19.00
2018-06-24T19:37:57.721Z,19.00
2018-06-24T19:40:25.943Z,19.00
2018-06-24T19:42:54.148Z,18.90
2018-06-24T19:45:22.326Z,18.90
2018-06-24T19:47:50.780Z,18.90
2018-06-24T19:50:18.957Z,18.90
2018-06-24T19:52:47.288Z,18.90
2018-06-24T19:55:16.341Z,18.90
2018-06-24T19:57:44.529Z,18.90
2018-06-24T20:00:12.705Z,18.80
2018-06-24T20:02:40.900Z,18.80
2018-06-24T20:07:37.045Z,18.90
2018-06-24T20:12:33.267Z,18.80
2018-06-24T20:15:01.457Z,18.80
2018-06-24T20:17:29.675Z,18.80
2018-06-24T20:19:57.849Z,18.80
2018-06-24T20:22:26.056Z,18.70
2018-06-24T20:24:54.378Z,18.70
2018-06-24T20:27:22.573Z,18.60
2018-06-24T20:29:50.772Z,18.60
2018-06-24T20:32:18.945Z,18.60
2018-06-24T20:34:47.194Z,18.50
2018-06-24T20:37:15.340Z,18.50
2018-06-24T20:39:43.531Z,18.50
2018-06-24T20:42:11.720Z,18.50
2018-06-24T20:44:39.928Z,18.50
2018-06-24T20:47:08.116Z,18.50
2018-06-24T20:49:36.304Z,18.50
2018-06-24T20:52:04.508Z,18.50
2018-06-24T20:54:32.744Z,18.50
2018-06-24T20:57:00.917Z,18.50
2018-06-24T20:59:29.131Z,18.40
2018-06-24T21:01:57.304Z,18.40
2018-06-24T21:04:25.506Z,18.40
2018-06-24T21:06:53.697Z,18.40
2018-06-24T21:09:21.912Z,18.30
2018-06-24T21:11:50.139Z,18.30
2018-06-24T21:14:18.329Z,18.30
2018-06-24T21:16:46.524Z,18.30
2018-06-24T21:19:14.700Z,18.30
2018-06-24T21:21:42.919Z,18.20
2018-06-24T21:24:11.104Z,18.30
2018-06-24T21:26:39.315Z,18.30
2018-06-24T21:31:35.474Z,18.20
2018-06-24T21:36:31.692Z,18.20
2018-06-24T21:38:59.876Z,18.10
2018-06-24T21:41:28.073Z,18.10
2018-06-24T21:43:56.253Z,18.10
2018-06-24T21:46:24.442Z,18.10
2018-06-24T21:48:52.616Z,18.10
2018-06-24T21:51:20.800Z,18.10
2018-06-24T21:53:48.996Z,18.10
2018-06-24T21:56:17.200Z,18.00
2018-06-24T21:58:45.372Z,18.10
2018-06-24T22:01:13.593Z,18.00
2018-06-24T22:03:41.776Z,18.00
2018-06-24T22:06:09.971Z,18.00
2018-06-24T22:08:38.189Z,18.00
2018-06-24T22:11:06.584Z,18.00
2018-06-24T22:13:34.776Z,17.90
2018-06-24T22:16:03.000Z,18.00
2018-06-24T22:18:31.193Z,18.00
2018-06-24T22:21:01.424Z,18.00
2018-06-24T22:23:29.684Z,17.90
2018-06-24T22:25:57.868Z,17.90
2018-06-24T22:28:26.204Z,17.90
2018-06-24T22:30:54.421Z,17.90
2018-06-24T22:33:22.620Z,17.90
2018-06-24T22:35:50.792Z,17.80
2018-06-24T22:38:18.984Z,17.90
2018-06-24T22:40:47.204Z,17.90
2018-06-24T22:43:15.390Z,17.80
2018-06-24T22:45:43.780Z,17.80
2018-06-24T22:48:11.969Z,17.80
2018-06-24T22:50:40.173Z,17.80
2018-06-24T22:53:08.393Z,17.70
2018-06-24T22:55:36.573Z,17.80
2018-06-24T22:58:04.800Z,17.80
2018-06-24T23:00:32.997Z,17.70
2018-06-24T23:03:02.295Z,17.70
2018-06-24T23:05:30.517Z,17.70
2018-06-24T23:07:58.696Z,17.70
2018-06-24T23:10:27.049Z,17.70
2018-06-24T23:12:55.244Z,17.60
2018-06-24T23:15:23.416Z,17.60
2018-06-24T23:17:51.596Z,17.60
2018-06-24T23:20:19.776Z,17.60
2018-06-24T23:22:48.035Z,17.60
2018-06-24T23:25:16.217Z,17.70
2018-06-24T23:27:44.673Z,17.70
2018-06-24T23:30:13.072Z,17.70
2018-06-24T23:32:41.257Z,17.70
2018-06-24T23:35:09.453Z,17.60
2018-06-24T23:37:37.654Z,17.70
2018-06-24T23:40:05.884Z,17.70
2018-06-24T23:42:34.065Z,17.70
2018-06-24T23:45:02.328Z,17.70
2018-06-24T23:47:30.500Z,17.70
2018-06-24T23:49:58.700Z,17.70
2018-06-24T23:52:26.894Z,17.70
2018-06-24T23:54:55.100Z,17.70
2018-06-24T23:57:23.268Z,17.60
2018-06-24T23:59:51.480Z,17.60
